Brooklyn Park, MN (55428)

12:12 PM CST on February 07, 2016 (GMT -0600)
New Hope | | Change Station
CLOSE
Current Station
Personal Weather Station
Location: Minneapolis, MN
Elevation: 903 ft
Nearby Weather Stations
Active Advisory: Winter Weather Advisory

Elev 903 ft 45.07 °N, 93.38 °W | Updated 12 seconds ago

Overcast
Overcast
39.9 °F
Feels Like 33 °F
N
11.5
Wind Variable Wind from ENE
Gusts 11.5 mph

Today
High -- | Low -- °F
--% Chance of Precip.
Yesterday
High -- | Low -- °F
Precip. -- in
Pressure 29.64 in
Visibility 10.0 miles
Clouds Overcast 3600 ft
Windchill 33 °F
Dew Point 24 °F
Humidity 53%
Rainfall 0.00 in
Snow Depth Not available.
7:26 AM 5:29 PM
Waning Crescent, 1% visible
METAR KMIC 071753Z 28018G28KT 10SM OVC036 04/M04 A2962 RMK AO2 PK WND 30030/1720 SLP036 T00441039 10050 20022 53003
Pressure 29.64 in
Visibility 10.0 miles
Clouds Overcast 3600 ft
Windchill 33 °F
Dew Point 24 °F
Humidity 53%
Rainfall 0.00 in
Snow Depth Not available.
7:26 AM 5:29 PM
Waning Crescent, 1% visible
METAR KMIC 071753Z 28018G28KT 10SM OVC036 04/M04 A2962 RMK AO2 PK WND 30030/1720 SLP036 T00441039 10050 20022 53003

10-Day Weather Forecast

Almanac

Astronomy

Feb. 07, 2016 Rise Set
Actual Time
Civil Twilight
Nautical Twilight
Astronomical Twilight
Moon
Length of Visible Light
Length of Day
Tomorrow will be .
, % of the Moon is Illuminated

Today's Extremes

State Highs State Lows

Community

WunderPhotos

Upload Photos

1,891,274 photos uploaded!

WunderBlog® & News

Nearby

Air Quality

  Air Quality AQ Index Pollutant
Not available.

Snow Depth

Station Depth Elevation

Earthquake Activity

City Distance Mag. Time & Date
Minimum magnitude displayed is 2.5.

Coastal Water Temperatures

Place Temperature

Stations

Nearby Weather Stations

Station Location Temp. Windchill Dew Point Humidity Wind Precip. Elev Updated Type
                   

Watches & Warnings

Winter Weather Advisory
Issued: 10:11 AM CST Feb. 7, 2016 – National Weather Service

... Winter Weather Advisory remains in effect from 7 PM this
evening to noon CST Monday...

* expect snow to develop around 7 PM this evening and then
diminish around noon Monday.

* Total snow accumulations of up to 2 inches are expected.

* Winds gusting as high as 45 mph will cause areas of blowing
and drifting snow.

* Plan on slippery Road conditions.

Precautionary/preparedness actions...

A Winter Weather Advisory for snow and blowing snow means periods
of snow will cause primarily travel difficulties. Be prepared for
snow covered roads and limited visibilities... and use caution
while driving. The latest Road conditions for the state you are
calling from can be obtained by calling 5 1 1.